Time;durP1;ratioP1;P1;durP2;ratioP2;P2;SDS_P1;SDS_P2;PMS_P1;PMS_P2;Temp;Humidity;BMP_temperature;BMP_pressure;BME280_temperature;BME280_humidity;BME280_pressure;Samples;Min_cycle;Max_cycle;Signal;HPM_P1;HPM_P2
2021/08/17 00:02:12;;;;;;;21.03;3.33;;;13.90;90.70;;;;;;5072737;28;20754;-87
2021/08/17 00:04:38;;;;;;;28.23;6.17;;;13.90;90.80;;;;;;5073958;28;20168;-87
2021/08/17 00:07:03;;;;;;;27.33;4.00;;;14.00;90.90;;;;;;5072789;28;20317;-87
2021/08/17 00:09:31;;;;;;;21.40;3.17;;;14.00;91.00;;;;;;5073989;28;20175;-87
2021/08/17 00:11:57;;;;;;;11.50;2.43;;;14.00;91.00;;;;;;5073856;28;20601;-87
2021/08/17 00:14:22;;;;;;;15.10;3.13;;;14.00;91.00;;;;;;5072524;28;20179;-87
2021/08/17 00:16:48;;;;;;;21.50;3.57;;;14.10;91.10;;;;;;5073768;28;20186;-87
2021/08/17 00:19:13;;;;;;;19.43;4.27;;;14.10;91.00;;;;;;5073093;28;20175;-87
2021/08/17 00:21:39;;;;;;;24.87;4.17;;;14.00;91.00;;;;;;5072341;28;20290;-87
2021/08/17 00:24:05;;;;;;;12.10;2.77;;;14.00;90.90;;;;;;5072382;28;20172;-87
2021/08/17 00:26:30;;;;;;;25.93;3.67;;;14.00;91.10;;;;;;5073567;28;20176;-87
2021/08/17 00:28:56;;;;;;;14.03;2.93;;;14.00;91.20;;;;;;5073559;28;20201;-87
2021/08/17 00:31:22;;;;;;;19.43;3.57;;;14.00;91.30;;;;;;5072236;28;20639;-85
2021/08/17 00:33:47;;;;;;;12.90;2.83;;;14.00;91.30;;;;;;5072259;28;20182;-84
2021/08/17 00:36:13;;;;;;;16.70;2.83;;;14.00;91.40;;;;;;5073427;28;20163;-84
2021/08/17 00:38:39;;;;;;;14.67;3.20;;;14.00;91.50;;;;;;5072320;28;20216;-85
2021/08/17 00:41:07;;;;;;;23.87;3.30;;;14.00;91.60;;;;;;5073342;28;20191;-84
2021/08/17 00:43:32;;;;;;;23.93;4.00;;;14.00;91.60;;;;;;5073458;28;20174;-84
2021/08/17 00:45:58;;;;;;;11.03;2.97;;;14.10;91.40;;;;;;5072276;28;20175;-85
2021/08/17 00:48:24;;;;;;;19.33;3.37;;;14.10;91.30;;;;;;5072050;28;20171;-85
2021/08/17 00:50:49;;;;;;;14.73;3.27;;;14.10;91.20;;;;;;5073022;28;20217;-85
2021/08/17 00:53:15;;;;;;;28.50;4.43;;;14.20;91.10;;;;;;5072096;28;20183;-85
2021/08/17 00:55:41;;;;;;;24.03;3.67;;;14.20;91.20;;;;;;5071968;28;20560;-85
2021/08/17 00:58:07;;;;;;;12.87;3.43;;;14.30;91.00;;;;;;5071497;28;20179;-85
2021/08/17 01:00:32;;;;;;;16.57;3.57;;;14.30;90.80;;;;;;5073114;28;20282;-84
2021/08/17 01:02:58;;;;;;;12.80;3.30;;;14.30;90.90;;;;;;5073170;28;20167;-84
2021/08/17 01:05:28;;;;;;;11.70;2.63;;;14.30;90.70;;;;;;5073203;28;20243;-84
2021/08/17 01:07:54;;;;;;;14.73;2.50;;;14.20;90.70;;;;;;5073690;28;20174;-85
2021/08/17 01:10:20;;;;;;;18.70;3.07;;;14.20;90.70;;;;;;5071769;28;20203;-84
2021/08/17 01:12:46;;;;;;;14.23;2.40;;;14.20;90.90;;;;;;5071772;28;20203;-84
2021/08/17 01:15:14;;;;;;;18.67;2.87;;;14.20;90.90;;;;;;5073106;28;20250;-84
2021/08/17 01:17:40;;;;;;;19.17;3.83;;;14.10;90.90;;;;;;5071855;28;20313;-85
2021/08/17 01:20:13;;;;;;;17.83;3.27;;;14.00;90.70;;;;;;5073048;28;20219;-84
2021/08/17 01:22:40;;;;;;;12.50;2.50;;;14.00;90.70;;;;;;5071833;28;20171;-84
2021/08/17 01:25:07;;;;;;;14.73;3.77;;;14.00;90.70;;;;;;5071793;28;20286;-85
2021/08/17 01:27:32;;;;;;;16.23;3.07;;;14.00;90.80;;;;;;5072967;28;20221;-85
2021/08/17 01:29:58;;;;;;;17.53;3.33;;;14.00;91.00;;;;;;5071618;28;20195;-84
2021/08/17 01:32:23;;;;;;;11.87;3.33;;;14.00;91.10;;;;;;5072902;28;20187;-84
2021/08/17 01:34:49;;;;;;;24.63;4.20;;;14.00;91.20;;;;;;5072923;28;20254;-84
2021/08/17 01:37:15;;;;;;;13.73;3.03;;;14.00;91.10;;;;;;5071918;28;20174;-85
2021/08/17 01:39:40;;;;;;;15.43;2.87;;;14.00;91.20;;;;;;5073110;28;20172;-84
2021/08/17 01:42:06;;;;;;;15.13;3.40;;;14.00;91.00;;;;;;5071563;28;20182;-85
2021/08/17 01:44:32;;;;;;;19.33;3.47;;;14.00;91.00;;;;;;5071564;28;20233;-85
2021/08/17 01:46:57;;;;;;;19.47;3.93;;;13.90;91.20;;;;;;5073051;28;20176;-85
2021/08/17 01:49:23;;;;;;;10.83;3.07;;;13.90;91.20;;;;;;5072637;28;20225;-85
2021/08/17 01:51:49;;;;;;;17.87;3.33;;;14.00;91.30;;;;;;5071352;28;20217;-85
2021/08/17 01:54:15;;;;;;;17.90;3.43;;;14.00;91.50;;;;;;5071520;28;20178;-84
2021/08/17 01:56:42;;;;;;;23.17;3.60;;;14.00;91.70;;;;;;5072934;28;20180;-84
2021/08/17 01:59:07;;;;;;;22.23;4.40;;;14.00;91.70;;;;;;5072693;28;20172;-84
2021/08/17 02:01:33;;;;;;;21.23;4.23;;;14.00;91.80;;;;;;5072555;28;20612;-84
2021/08/17 02:03:59;;;;;;;27.20;4.27;;;14.00;91.70;;;;;;5071415;28;20175;-85
2021/08/17 02:06:24;;;;;;;20.00;4.00;;;14.10;91.80;;;;;;5072611;28;20172;-85
2021/08/17 02:08:50;;;;;;;17.87;4.10;;;14.10;91.70;;;;;;5071258;28;20179;-84
2021/08/17 02:11:16;;;;;;;27.10;5.03;;;14.10;91.70;;;;;;5074284;28;20546;-84
2021/08/17 02:13:41;;;;;;;29.60;4.63;;;14.10;91.60;;;;;;5076302;28;20171;-84
2021/08/17 02:16:07;;;;;;;21.83;3.73;;;14.10;91.60;;;;;;5074892;28;20180;-85
2021/08/17 02:18:35;;;;;;;14.10;3.93;;;14.00;91.30;;;;;;5074817;28;20241;-85
2021/08/17 02:21:02;;;;;;;16.00;2.77;;;14.10;90.20;;;;;;5075055;28;20199;-85
2021/08/17 02:23:29;;;;;;;17.73;3.47;;;14.20;89.10;;;;;;5076271;28;20172;-85
2021/08/17 02:25:55;;;;;;;10.27;3.20;;;14.20;88.20;;;;;;5075969;28;20167;-85
2021/08/17 02:28:21;;;;;;;27.70;3.10;;;14.20;87.60;;;;;;5074703;28;20184;-85
2021/08/17 02:30:51;;;;;;;10.63;2.63;;;14.30;87.40;;;;;;5074566;28;20597;-84
2021/08/17 02:33:17;;;;;;;8.60;2.17;;;14.20;86.50;;;;;;5075732;28;20609;-84
2021/08/17 02:35:43;;;;;;;10.97;3.17;;;14.10;86.30;;;;;;5075928;28;20216;-84
2021/08/17 02:38:11;;;;;;;8.30;2.53;;;14.00;86.40;;;;;;5074517;28;20167;-84
2021/08/17 02:40:38;;;;;;;16.03;2.73;;;14.00;86.30;;;;;;5074431;28;20623;-84
2021/08/17 02:43:04;;;;;;;15.73;2.90;;;14.00;86.40;;;;;;5074472;28;20179;-85
2021/08/17 02:45:29;;;;;;;13.60;2.70;;;13.90;87.00;;;;;;5075727;28;20633;-85
2021/08/17 02:47:57;;;;;;;10.40;2.40;;;13.90;87.50;;;;;;5074700;28;20271;-85
2021/08/17 02:50:23;;;;;;;11.27;2.83;;;13.90;87.90;;;;;;5074115;28;20210;-85
2021/08/17 02:52:48;;;;;;;18.37;3.13;;;13.90;88.10;;;;;;5074119;28;20667;-85
2021/08/17 02:55:14;;;;;;;15.20;3.83;;;13.90;88.50;;;;;;5075402;28;20177;-84
2021/08/17 02:57:54;;;;;;;9.83;2.40;;;13.90;88.90;;;;;;5074160;28;20175;-85
2021/08/17 03:00:21;;;;;;;14.13;2.67;;;13.90;89.10;;;;;;5073949;28;20194;-85
2021/08/17 03:02:47;;;;;;;13.03;3.07;;;13.90;89.20;;;;;;5075303;28;20172;-84
2021/08/17 03:05:13;;;;;;;14.83;4.00;;;13.90;89.50;;;;;;5073943;28;20172;-84
2021/08/17 03:08:05;;;;;;;10.97;2.57;;;13.80;89.90;;;;;;5075188;28;20186;-84
2021/08/17 03:10:35;;;;;;;12.93;3.07;;;13.70;90.10;;;;;;5073831;28;20218;-84
2021/08/17 03:13:01;;;;;;;11.10;3.10;;;13.70;90.20;;;;;;5073727;28;20256;-84
2021/08/17 03:15:34;;;;;;;12.60;3.03;;;13.70;90.10;;;;;;5073759;28;20696;-85
2021/08/17 03:18:01;;;;;;;13.50;3.47;;;13.70;90.30;;;;;;5073851;28;20171;-84
2021/08/17 03:20:27;;;;;;;14.80;3.00;;;13.70;90.60;;;;;;5073935;28;20286;-85
2021/08/17 03:22:53;;;;;;;12.47;2.93;;;13.70;90.60;;;;;;5074586;28;20195;-85
2021/08/17 03:25:19;;;;;;;11.63;2.93;;;13.70;90.80;;;;;;5076219;28;20183;-85
2021/08/17 03:27:45;;;;;;;16.47;3.10;;;13.70;91.00;;;;;;5076291;28;20179;-85
2021/08/17 03:30:14;;;;;;;18.37;3.97;;;13.70;91.20;;;;;;5074690;28;20191;-85
2021/08/17 03:32:41;;;;;;;17.60;3.40;;;13.70;91.40;;;;;;5074564;28;20240;-84
2021/08/17 03:35:08;;;;;;;13.03;2.70;;;13.70;91.60;;;;;;5074670;28;20179;-84
2021/08/17 03:37:34;;;;;;;19.37;2.90;;;13.70;91.70;;;;;;5074526;28;20175;-84
2021/08/17 03:40:00;;;;;;;19.13;3.47;;;13.70;91.50;;;;;;5073159;28;20574;-84
2021/08/17 03:42:29;;;;;;;12.53;2.63;;;13.70;91.10;;;;;;5073292;28;20294;-85
2021/08/17 03:44:56;;;;;;;10.40;2.47;;;13.70;90.50;;;;;;5074467;28;20213;-85
2021/08/17 03:47:22;;;;;;;12.90;2.63;;;13.60;90.60;;;;;;5074344;28;20179;-85
2021/08/17 03:49:48;;;;;;;15.77;3.83;;;13.60;90.70;;;;;;5072897;28;20191;-85
2021/08/17 03:52:13;;;;;;;15.67;3.30;;;13.60;90.90;;;;;;5073568;28;20195;-85
2021/08/17 03:54:39;;;;;;;14.13;2.73;;;13.50;90.90;;;;;;5074362;28;20538;-85
2021/08/17 03:57:05;;;;;;;11.50;2.77;;;13.50;91.00;;;;;;5072911;28;20224;-85
2021/08/17 03:59:31;;;;;;;11.80;3.20;;;13.50;91.30;;;;;;5072865;28;20203;-85
2021/08/17 04:01:56;;;;;;;11.00;3.00;;;13.50;91.40;;;;;;5072898;28;20274;-85
2021/08/17 04:04:22;;;;;;;10.00;2.97;;;13.60;91.70;;;;;;5074013;28;20175;-85
2021/08/17 04:06:47;;;;;;;17.33;3.50;;;13.60;92.00;;;;;;5072811;28;20671;-85
2021/08/17 04:09:13;;;;;;;11.87;3.77;;;13.70;92.20;;;;;;5072755;28;20554;-84
2021/08/17 04:11:39;;;;;;;16.10;3.67;;;13.70;92.30;;;;;;5074078;28;20671;-84
2021/08/17 04:14:04;;;;;;;17.20;4.20;;;13.70;92.30;;;;;;5072713;28;20171;-85
2021/08/17 04:16:30;;;;;;;22.27;4.20;;;13.80;92.40;;;;;;5072592;28;20178;-85
2021/08/17 04:18:55;;;;;;;21.23;4.27;;;13.80;92.40;;;;;;5073773;28;20186;-85
2021/08/17 04:21:21;;;;;;;22.23;4.97;;;13.90;92.70;;;;;;5072478;28;20199;-85
2021/08/17 04:23:48;;;;;;;23.10;6.50;;;14.00;92.80;;;;;;5072461;28;20696;-85
2021/08/17 04:26:13;;;;;;;24.27;5.20;;;14.00;92.90;;;;;;5072690;28;20639;-85
2021/08/17 04:28:39;;;;;;;19.83;4.70;;;14.00;93.00;;;;;;5072337;28;20183;-85
2021/08/17 04:31:05;;;;;;;27.17;5.97;;;14.20;93.20;;;;;;5073773;28;20199;-85
2021/08/17 04:33:30;;;;;;;29.73;6.43;;;14.20;93.10;;;;;;5072969;28;20174;-85
2021/08/17 04:35:56;;;;;;;27.27;6.23;;;14.30;93.10;;;;;;5072380;28;20203;-85
2021/08/17 04:38:22;;;;;;;34.67;5.87;;;14.30;93.00;;;;;;5073651;28;20250;-85
2021/08/17 04:40:47;;;;;;;31.80;6.20;;;14.30;93.00;;;;;;5073688;28;20201;-85
2021/08/17 04:43:13;;;;;;;24.23;5.77;;;14.30;93.00;;;;;;5073443;28;20647;-85
2021/08/17 04:45:38;;;;;;;31.00;7.70;;;14.30;93.10;;;;;;5072266;28;20666;-85
2021/08/17 04:48:04;;;;;;;30.93;6.33;;;14.30;93.00;;;;;;5072086;28;20180;-85
2021/08/17 04:50:30;;;;;;;31.13;5.93;;;14.30;93.00;;;;;;5073225;28;20210;-85
2021/08/17 04:52:57;;;;;;;23.77;5.80;;;14.30;93.00;;;;;;5072085;28;20764;-85
2021/08/17 04:55:23;;;;;;;22.33;4.60;;;14.30;93.00;;;;;;5072216;28;20175;-85
2021/08/17 04:57:59;;;;;;;26.50;5.17;;;14.30;93.00;;;;;;5073390;28;20176;-85
2021/08/17 05:00:27;;;;;;;39.93;7.40;;;14.30;93.10;;;;;;5073581;28;20202;-85
2021/08/17 05:02:53;;;;;;;37.43;5.50;;;14.30;93.30;;;;;;5071966;28;20182;-85
2021/08/17 05:05:19;;;;;;;32.53;6.03;;;14.30;93.30;;;;;;5073304;28;20170;-86
2021/08/17 05:07:45;;;;;;;26.47;5.43;;;14.30;93.30;;;;;;5072009;28;20178;-86
2021/08/17 05:10:24;;;;;;;;;;;;;;;;;;;;;
2021/08/17 05:12:51;;;;;;;35.23;5.77;;;14.40;93.30;;;;;;5073746;28;20651;-86
2021/08/17 05:15:16;;;;;;;31.43;6.93;;;14.50;93.30;;;;;;5071975;28;20278;-86
2021/08/17 05:17:42;;;;;;;31.73;6.53;;;14.50;93.20;;;;;;5071904;28;20187;-86
2021/08/17 05:20:10;;;;;;;29.10;6.03;;;14.50;93.20;;;;;;5072937;28;20560;-86
2021/08/17 05:22:36;;;;;;;33.10;6.70;;;14.40;93.20;;;;;;5071936;28;20183;-86
2021/08/17 05:25:02;;;;;;;26.13;5.63;;;14.50;93.30;;;;;;5073096;28;20175;-86
2021/08/17 05:27:27;;;;;;;30.87;5.57;;;14.50;93.20;;;;;;5072266;28;20179;-86
2021/08/17 05:29:55;;;;;;;29.47;5.47;;;14.60;93.00;;;;;;5071911;28;20199;-86
2021/08/17 05:32:21;;;;;;;21.00;4.83;;;14.70;93.00;;;;;;5073443;28;20631;-86
2021/08/17 05:34:47;;;;;;;27.07;5.00;;;14.60;92.80;;;;;;5072207;28;20773;-86
2021/08/17 05:37:14;;;;;;;25.77;5.90;;;14.60;92.70;;;;;;5071825;28;20201;-86
2021/08/17 05:39:42;;;;;;;21.43;5.23;;;14.60;92.70;;;;;;5072976;28;20182;-86
2021/08/17 05:42:09;;;;;;;26.27;5.67;;;14.70;92.90;;;;;;5073564;28;20195;-86
2021/08/17 05:44:37;;;;;;;20.97;4.30;;;14.80;92.90;;;;;;5073647;28;20179;-86
2021/08/17 05:47:03;;;;;;;26.50;5.40;;;14.90;92.40;;;;;;5075465;28;20179;-86
2021/08/17 05:49:28;;;;;;;22.23;5.73;;;14.90;92.40;;;;;;5076708;28;20231;-85
2021/08/17 05:51:54;;;;;;;20.70;4.90;;;14.90;92.10;;;;;;5075476;28;20207;-85
2021/08/17 05:54:19;;;;;;;16.73;4.37;;;14.90;92.20;;;;;;5075493;28;20213;-85
2021/08/17 05:56:45;;;;;;;23.90;5.67;;;14.90;92.30;;;;;;5075537;28;20547;-85
2021/08/17 05:59:11;;;;;;;19.70;5.23;;;14.90;92.00;;;;;;5075247;28;20180;-84
2021/08/17 06:01:36;;;;;;;21.73;5.13;;;15.00;92.40;;;;;;5075308;28;20248;-85
2021/08/17 06:04:02;;;;;;;19.77;4.87;;;15.10;92.30;;;;;;5075237;28;20179;-85
2021/08/17 06:06:28;;;;;;;28.57;5.93;;;15.00;92.40;;;;;;5076522;28;20525;-85
2021/08/17 06:08:53;;;;;;;19.07;5.23;;;15.00;92.70;;;;;;5075091;28;20215;-85
2021/08/17 06:11:19;;;;;;;19.43;5.37;;;15.00;92.60;;;;;;5074895;28;20655;-85
2021/08/17 06:13:45;;;;;;;22.43;5.23;;;14.90;92.40;;;;;;5076570;28;20289;-85
2021/08/17 06:16:10;;;;;;;22.73;5.13;;;14.90;92.30;;;;;;5074976;28;20171;-85
2021/08/17 06:18:36;;;;;;;29.30;5.63;;;14.80;92.70;;;;;;5074889;28;20516;-86
2021/08/17 06:21:02;;;;;;;29.30;5.67;;;14.90;92.90;;;;;;5074831;28;20191;-86
2021/08/17 06:23:27;;;;;;;29.97;6.23;;;14.90;92.90;;;;;;5076572;28;20245;-85
2021/08/17 06:25:53;;;;;;;31.13;5.27;;;15.00;93.00;;;;;;5074774;28;20179;-85
2021/08/17 06:28:19;;;;;;;22.60;4.77;;;15.10;93.10;;;;;;5075930;28;20172;-86
2021/08/17 06:30:45;;;;;;;16.97;4.20;;;15.10;92.70;;;;;;5075854;28;20195;-86
2021/08/17 06:33:10;;;;;;;22.03;4.80;;;15.10;92.70;;;;;;5075901;28;20225;-86
2021/08/17 06:35:36;;;;;;;24.40;3.90;;;15.20;92.70;;;;;;5074641;28;20167;-86
2021/08/17 06:38:02;;;;;;;16.83;4.57;;;15.20;92.70;;;;;;5074640;28;20179;-85
2021/08/17 06:40:27;;;;;;;20.97;4.80;;;15.20;92.60;;;;;;5074483;28;20225;-85
2021/08/17 06:42:54;;;;;;;34.93;4.70;;;15.20;92.30;;;;;;5075694;28;20183;-85
2021/08/17 06:45:20;;;;;;;15.97;4.43;;;15.10;92.10;;;;;;5074492;28;20194;-85
2021/08/17 06:47:50;;;;;;;19.33;3.87;;;15.20;92.10;;;;;;5075549;28;20665;-85
2021/08/17 06:50:17;;;;;;;17.80;4.57;;;15.30;92.70;;;;;;5075381;28;20609;-85
2021/08/17 06:52:43;;;;;;;21.50;4.00;;;15.40;92.60;;;;;;5074109;28;20715;-85
2021/08/17 06:55:10;;;;;;;22.47;4.87;;;15.60;92.80;;;;;;5074332;28;20178;-85
2021/08/17 06:57:36;;;;;;;16.48;3.67;;;15.60;92.60;;;;;;5073413;28;20171;-85
2021/08/17 07:00:04;;;;;;;23.43;4.67;;;15.70;92.40;;;;;;5074726;28;20197;-86
2021/08/17 07:02:29;;;;;;;23.47;4.40;;;15.50;92.00;;;;;;5074424;28;20539;-86
2021/08/17 07:04:55;;;;;;;21.23;4.30;;;15.30;92.10;;;;;;5075628;28;20252;-86
2021/08/17 07:07:21;;;;;;;24.83;4.43;;;15.30;92.30;;;;;;5073982;28;20187;-85
2021/08/17 07:09:46;;;;;;;18.90;4.60;;;15.20;92.30;;;;;;5075273;28;20176;-86
2021/08/17 07:12:12;;;;;;;14.40;3.87;;;15.20;92.40;;;;;;5073912;28;20211;-86
2021/08/17 07:14:38;;;;;;;15.47;5.07;;;15.30;92.40;;;;;;5073912;28;20178;-86
2021/08/17 07:17:03;;;;;;;16.80;4.27;;;15.30;92.50;;;;;;5073948;28;20669;-86
2021/08/17 07:19:30;;;;;;;15.50;5.00;;;15.30;92.40;;;;;;5075058;28;20574;-86
2021/08/17 07:21:56;;;;;;;8.27;2.83;;;15.30;92.40;;;;;;5073641;28;20679;-86
2021/08/17 07:24:22;;;;;;;15.23;4.33;;;15.30;92.30;;;;;;5074139;28;20182;-85
2021/08/17 07:26:47;;;;;;;15.73;3.13;;;15.30;92.40;;;;;;5075170;28;20178;-85
2021/08/17 07:29:13;;;;;;;16.77;3.90;;;15.40;92.80;;;;;;5073651;28;20228;-86
2021/08/17 07:31:39;;;;;;;12.77;3.50;;;15.40;92.40;;;;;;5073466;28;20290;-86
2021/08/17 07:34:05;;;;;;;14.60;3.87;;;15.40;92.40;;;;;;5074959;28;20167;-85
2021/08/17 07:36:33;;;;;;;12.93;3.53;;;15.30;92.00;;;;;;5074767;28;20175;-85
2021/08/17 07:38:58;;;;;;;16.17;3.70;;;15.40;92.00;;;;;;5073362;28;20698;-85
2021/08/17 07:41:25;;;;;;;10.90;3.50;;;15.30;91.70;;;;;;5074404;28;20275;-86
2021/08/17 07:43:51;;;;;;;10.90;3.30;;;15.20;91.90;;;;;;5073271;28;20175;-85
2021/08/17 07:46:16;;;;;;;13.87;3.43;;;15.10;91.90;;;;;;5074508;28;20646;-85
2021/08/17 07:48:42;;;;;;;10.23;2.70;;;15.00;91.60;;;;;;5073227;28;20167;-85
2021/08/17 07:51:08;;;;;;;12.87;3.20;;;15.00;91.60;;;;;;5072911;28;20210;-85
2021/08/17 07:53:34;;;;;;;11.80;3.00;;;15.00;91.60;;;;;;5073116;28;20197;-85
2021/08/17 07:56:00;;;;;;;9.37;3.27;;;14.90;90.90;;;;;;5074598;28;20163;-85
2021/08/17 07:58:25;;;;;;;8.23;2.40;;;14.90;91.30;;;;;;5073026;28;20233;-85
2021/08/17 08:00:51;;;;;;;8.80;2.83;;;14.90;91.20;;;;;;5073855;28;20592;-85
2021/08/17 08:03:17;;;;;;;10.40;2.77;;;14.90;91.80;;;;;;5074219;28;20172;-86
2021/08/17 08:05:42;;;;;;;13.60;3.03;;;14.90;92.00;;;;;;5074158;28;20635;-85
2021/08/17 08:08:08;;;;;;;10.87;2.30;;;14.90;92.20;;;;;;5071891;28;20178;-85
2021/08/17 08:10:34;;;;;;;8.27;3.00;;;14.80;92.30;;;;;;5072618;28;20199;-86
2021/08/17 08:12:59;;;;;;;13.77;3.33;;;14.90;92.40;;;;;;5072695;28;20195;-86
2021/08/17 08:15:25;;;;;;;12.23;3.37;;;14.90;92.50;;;;;;5072945;28;20664;-86
2021/08/17 08:17:51;;;;;;;10.60;3.40;;;15.00;92.70;;;;;;5072726;28;20175;-86
2021/08/17 08:20:16;;;;;;;8.93;3.03;;;14.90;92.70;;;;;;5073832;28;20670;-86
2021/08/17 08:22:42;;;;;;;10.27;2.73;;;14.90;92.90;;;;;;5072811;28;20175;-86
2021/08/17 08:25:09;;;;;;;11.00;2.73;;;14.90;92.60;;;;;;5072566;28;20175;-86
2021/08/17 08:27:35;;;;;;;7.03;2.83;;;14.80;92.50;;;;;;5074108;28;20225;-88
2021/08/17 08:30:02;;;;;;;10.17;3.30;;;14.80;92.80;;;;;;5073617;28;20188;-88
2021/08/17 08:32:27;;;;;;;8.67;2.97;;;14.90;93.10;;;;;;5072255;28;20728;-88
2021/08/17 08:34:53;;;;;;;5.83;2.70;;;14.90;92.90;;;;;;5073679;28;20163;-88
2021/08/17 08:37:18;;;;;;;8.37;2.73;;;14.90;92.60;;;;;;5073585;28;20217;-88
2021/08/17 08:39:44;;;;;;;3.93;2.00;;;15.00;92.70;;;;;;5073428;28;20179;-88
2021/08/17 08:42:10;;;;;;;6.73;1.97;;;15.00;92.50;;;;;;5073452;28;20214;-88
2021/08/17 08:44:36;;;;;;;6.70;2.40;;;15.00;92.30;;;;;;5073832;28;20176;-86
2021/08/17 08:47:02;;;;;;;9.20;2.23;;;15.00;92.50;;;;;;5072955;28;20213;-85
2021/08/17 08:49:29;;;;;;;7.03;2.50;;;15.00;92.60;;;;;;5072231;28;20229;-86
2021/08/17 08:51:55;;;;;;;14.23;3.90;;;14.90;92.80;;;;;;5073349;28;20242;-86
2021/08/17 08:54:20;;;;;;;8.33;2.73;;;14.90;92.80;;;;;;5072175;28;20179;-86
2021/08/17 08:56:46;;;;;;;8.17;2.67;;;14.80;92.70;;;;;;5072317;28;20647;-85
2021/08/17 08:59:12;;;;;;;9.33;2.53;;;14.80;92.60;;;;;;5072055;28;20184;-86
2021/08/17 09:01:37;;;;;;;8.40;2.37;;;14.80;92.70;;;;;;5073289;28;20274;-86
2021/08/17 09:04:03;;;;;;;9.67;2.83;;;14.70;92.80;;;;;;5073627;28;20538;-87
2021/08/17 09:06:31;;;;;;;13.50;3.30;;;14.80;92.90;;;;;;5072055;28;20183;-86
2021/08/17 09:09:15;;;;;;;9.90;2.60;;;14.70;92.90;;;;;;5073296;28;20171;-86
2021/08/17 09:11:44;;;;;;;10.50;2.20;;;14.60;92.90;;;;;;5071991;28;20211;-88
2021/08/17 09:14:33;;;;;;;13.63;2.77;;;14.50;92.80;;;;;;5071946;28;20175;-88
2021/08/17 09:17:03;;;;;;;9.87;2.60;;;14.60;92.90;;;;;;5072835;28;20163;-88
2021/08/17 09:19:43;;;;;;;7.83;2.77;;;14.70;93.20;;;;;;5072500;28;20179;-88
2021/08/17 09:22:19;;;;;;;9.63;3.10;;;14.70;93.30;;;;;;5077300;28;20179;-88
2021/08/17 09:24:47;;;;;;;18.27;3.70;;;14.80;93.30;;;;;;5076405;28;20176;-88
2021/08/17 09:27:18;;;;;;;14.10;3.00;;;14.80;93.30;;;;;;5075922;28;20214;-88
2021/08/17 09:29:52;;;;;;;7.40;2.43;;;14.80;93.10;;;;;;5075782;28;20167;-88
2021/08/17 09:32:21;;;;;;;10.03;2.73;;;14.80;93.20;;;;;;5077311;28;20187;-88
2021/08/17 09:34:53;;;;;;;12.87;3.70;;;14.80;93.00;;;;;;5077490;28;20171;-85
2021/08/17 09:37:19;;;;;;;16.13;3.87;;;14.90;93.30;;;;;;5075807;28;20558;-85
2021/08/17 09:39:50;;;;;;;14.63;3.60;;;15.10;93.30;;;;;;5077005;28;20171;-85
2021/08/17 09:42:22;;;;;;;13.90;4.37;;;15.30;93.50;;;;;;5077059;28;20160;-85
2021/08/17 09:45:07;;;;;;;15.67;3.80;;;15.40;93.10;;;;;;5076865;28;20171;-85
2021/08/17 09:47:35;;;;;;;16.30;3.80;;;15.50;92.80;;;;;;5075932;28;20646;-85
2021/08/17 09:50:24;;;;;;;17.97;4.23;;;15.70;92.60;;;;;;5075392;28;20215;-85
2021/08/17 09:53:05;;;;;;;16.50;3.03;;;15.80;92.20;;;;;;5076602;28;20219;-87
2021/08/17 09:55:39;;;;;;;7.53;3.00;;;15.80;91.60;;;;;;5076511;28;20186;-88
2021/08/17 09:58:33;;;;;;;17.77;3.60;;;15.80;91.20;;;;;;5075332;28;20163;-88
2021/08/17 10:01:03;;;;;;;14.00;3.63;;;15.80;91.60;;;;;;5075446;28;20214;-88
2021/08/17 10:03:30;;;;;;;18.85;4.00;;;15.60;90.90;;;;;;5075458;28;20186;-85
2021/08/17 10:05:56;;;;;;;17.60;4.13;;;15.60;91.00;;;;;;5076679;28;20182;-85
2021/08/17 10:08:25;;;;;;;19.87;4.80;;;15.60;91.70;;;;;;5076327;28;20186;-86
2021/08/17 10:10:52;;;;;;;21.07;4.67;;;15.50;91.20;;;;;;5076300;28;20253;-86
2021/08/17 10:13:23;;;;;;;21.00;4.93;;;15.40;91.20;;;;;;5076200;28;20199;-86
2021/08/17 10:15:50;;;;;;;9.57;2.37;;;15.30;91.90;;;;;;5075169;28;20539;-86
2021/08/17 10:18:19;;;;;;;15.23;4.10;;;15.30;90.90;;;;;;5075196;28;20313;-86
2021/08/17 10:20:52;;;;;;;17.53;4.10;;;15.30;91.90;;;;;;5076252;28;20198;-86
2021/08/17 10:23:20;;;;;;;27.67;5.32;;;15.40;92.40;;;;;;5076246;28;20585;-85
2021/08/17 10:25:54;;;;;;;24.63;5.17;;;15.50;92.10;;;;;;5074941;28;20219;-86
2021/08/17 10:28:40;;;;;;;32.90;5.40;;;15.50;92.50;;;;;;5076222;28;20163;-85
2021/08/17 10:31:12;;;;;;;25.73;5.38;;;15.50;92.40;;;;;;5073712;28;20199;-85
2021/08/17 10:33:43;;;;;;;24.47;4.97;;;15.50;92.60;;;;;;5074969;28;20195;-86
2021/08/17 10:36:11;;;;;;;28.50;4.50;;;15.30;92.10;;;;;;5074718;28;20183;-86
2021/08/17 10:38:39;;;;;;;16.23;4.30;;;15.40;92.20;;;;;;5075796;28;20201;-86
2021/08/17 10:41:07;;;;;;;19.70;4.47;;;15.30;92.30;;;;;;5074510;28;20226;-86
2021/08/17 10:43:33;;;;;;;15.97;4.10;;;15.20;92.20;;;;;;5076072;28;20171;-86
2021/08/17 10:46:01;;;;;;;21.67;4.83;;;15.20;92.40;;;;;;5074528;28;20186;-86
2021/08/17 10:48:45;;;;;;;16.97;4.00;;;15.30;92.50;;;;;;5075813;28;20171;-86
2021/08/17 10:51:31;;;;;;;19.90;4.87;;;15.20;92.60;;;;;;5075567;28;20203;-86
2021/08/17 10:54:02;;;;;;;25.97;5.20;;;15.10;92.70;;;;;;5075089;28;20206;-85
2021/08/17 10:56:30;;;;;;;18.00;4.97;;;15.00;93.00;;;;;;5074201;28;20666;-85
2021/08/17 10:58:59;;;;;;;17.83;4.77;;;15.00;92.60;;;;;;5074151;28;20175;-86
2021/08/17 11:01:30;;;;;;;22.47;5.17;;;15.00;92.90;;;;;;5074662;28;20199;-85
2021/08/17 11:04:05;;;;;;;18.33;4.60;;;15.00;92.40;;;;;;5074051;28;20175;-86
2021/08/17 11:06:37;;;;;;;19.57;4.63;;;15.00;92.60;;;;;;5074203;28;20175;-86
2021/08/17 11:09:08;;;;;;;25.90;5.17;;;15.20;92.60;;;;;;5073912;28;20647;-85
2021/08/17 11:11:35;;;;;;;17.23;4.23;;;15.20;92.00;;;;;;5075352;28;20198;-85
2021/08/17 11:14:15;;;;;;;19.97;4.77;;;15.30;92.30;;;;;;5073888;28;20194;-86
2021/08/17 11:16:49;;;;;;;14.67;4.50;;;15.40;91.10;;;;;;5074141;28;20164;-88
2021/08/17 11:19:15;;;;;;;18.07;5.00;;;15.40;91.30;;;;;;5073835;28;20259;-88
2021/08/17 11:21:50;;;;;;;23.23;5.03;;;15.40;91.70;;;;;;5073846;28;20792;-88
2021/08/17 11:24:17;;;;;;;17.70;4.40;;;15.30;91.20;;;;;;5073720;28;20206;-85
2021/08/17 11:27:07;;;;;;;17.30;4.30;;;15.20;91.30;;;;;;5073650;28;20608;-85
2021/08/17 11:29:39;;;;;;;17.33;4.57;;;15.20;91.60;;;;;;5073926;28;20190;-88
2021/08/17 11:32:23;;;;;;;28.33;4.93;;;15.20;91.60;;;;;;5074776;28;20239;-88
2021/08/17 11:34:49;;;;;;;23.37;5.40;;;15.30;91.20;;;;;;5074819;28;20509;-88
2021/08/17 11:37:15;;;;;;;18.73;5.90;;;15.30;91.20;;;;;;5073741;28;20317;-88
2021/08/17 11:39:55;;;;;;;11.73;3.27;;;15.20;91.20;;;;;;5073291;28;20176;-85
2021/08/17 11:42:27;;;;;;;29.37;6.10;;;15.20;91.20;;;;;;5074650;28;20635;-86
2021/08/17 11:44:57;;;;;;;19.87;6.90;;;15.20;91.20;;;;;;5073451;28;20643;-85
2021/08/17 11:47:23;;;;;;;21.27;5.47;;;15.10;91.60;;;;;;5074624;28;20170;-86
2021/08/17 11:49:57;;;;;;;17.80;4.93;;;15.00;91.70;;;;;;5074401;28;20183;-87
2021/08/17 11:52:35;;;;;;;22.27;6.23;;;14.90;91.60;;;;;;5074083;28;20198;-88
2021/08/17 11:55:08;;;;;;;14.70;5.33;;;14.90;92.10;;;;;;5073400;28;20159;-87
2021/08/17 11:57:41;;;;;;;23.37;6.50;;;14.90;92.30;;;;;;5074376;28;20656;-87
2021/08/17 12:00:21;;;;;;;28.97;6.53;;;15.00;92.60;;;;;;5073003;28;20219;-87
2021/08/17 12:02:51;;;;;;;22.27;6.83;;;15.10;92.70;;;;;;5073533;28;20240;-87
2021/08/17 12:05:19;;;;;;;25.13;6.80;;;15.10;92.60;;;;;;5073285;28;20164;-88
2021/08/17 12:07:48;;;;;;;23.67;6.63;;;15.10;92.90;;;;;;5073256;28;20182;-87
2021/08/17 12:10:16;;;;;;;24.07;6.70;;;15.10;92.80;;;;;;5072865;28;20195;-88
2021/08/17 12:13:07;;;;;;;24.63;6.97;;;15.20;93.00;;;;;;5072818;28;20195;-87
2021/08/17 12:15:33;;;;;;;21.93;6.37;;;15.30;93.00;;;;;;5074071;28;20168;-87
2021/08/17 12:18:16;;;;;;;21.07;5.70;;;15.20;92.40;;;;;;5073046;28;20175;-87
2021/08/17 12:21:00;;;;;;;30.77;6.93;;;15.20;91.40;;;;;;5073232;28;20202;-87
2021/08/17 12:23:29;;;;;;;30.07;6.70;;;15.20;91.50;;;;;;5072611;28;20179;-87
2021/08/17 12:26:18;;;;;;;19.70;5.47;;;15.30;90.80;;;;;;5074153;28;20168;-87
2021/08/17 12:28:47;;;;;;;22.63;5.80;;;15.40;90.10;;;;;;5072563;28;20167;-86
2021/08/17 12:31:18;;;;;;;18.47;5.43;;;15.50;89.10;;;;;;5072693;28;20202;-86
2021/08/17 12:33:54;;;;;;;14.57;4.07;;;15.50;89.10;;;;;;5072498;28;20199;-86
2021/08/17 12:36:44;;;;;;;13.33;4.80;;;15.60;88.50;;;;;;5072456;28;20163;-86
2021/08/17 12:39:11;;;;;;;16.83;6.03;;;15.60;87.60;;;;;;5073629;28;20163;-86
2021/08/17 12:41:39;;;;;;;17.17;5.43;;;15.70;88.80;;;;;;5072277;28;20188;-86
2021/08/17 12:44:22;;;;;;;23.23;6.07;;;15.70;86.80;;;;;;5073521;28;20556;-86